sensor_id;sensor_type;location;lat;lon;timestamp;P1;durP1;ratioP1;P2;durP2;ratioP2
57315;SDS011;43156;50.942;18.144;2023-06-10T00:12:47;16.80;;;11.40;;
57315;SDS011;43156;50.942;18.144;2023-06-10T00:15:17;17.20;;;11.20;;
57315;SDS011;43156;50.942;18.144;2023-06-10T00:17:47;14.60;;;11.00;;
57315;SDS011;43156;50.942;18.144;2023-06-10T00:20:23;13.50;;;11.30;;
57315;SDS011;43156;50.942;18.144;2023-06-10T00:22:54;13.30;;;11.20;;
57315;SDS011;43156;50.942;18.144;2023-06-10T00:25:23;15.10;;;10.60;;
57315;SDS011;43156;50.942;18.144;2023-06-10T00:27:55;14.10;;;11.00;;
57315;SDS011;43156;50.942;18.144;2023-06-10T00:30:28;14.40;;;11.60;;
57315;SDS011;43156;50.942;18.144;2023-06-10T00:32:54;13.30;;;12.00;;
57315;SDS011;43156;50.942;18.144;2023-06-10T00:35:29;14.70;;;12.00;;
57315;SDS011;43156;50.942;18.144;2023-06-10T00:38:03;14.10;;;11.60;;
57315;SDS011;43156;50.942;18.144;2023-06-10T00:40:33;14.30;;;11.40;;
57315;SDS011;43156;50.942;18.144;2023-06-10T00:43:08;13.40;;;11.80;;
57315;SDS011;43156;50.942;18.144;2023-06-10T00:45:34;15.60;;;11.80;;
57315;SDS011;43156;50.942;18.144;2023-06-10T00:48:05;14.70;;;11.90;;
57315;SDS011;43156;50.942;18.144;2023-06-10T00:50:35;15.90;;;12.90;;
57315;SDS011;43156;50.942;18.144;2023-06-10T00:53:05;17.30;;;12.40;;
57315;SDS011;43156;50.942;18.144;2023-06-10T00:55:32;16.60;;;12.40;;
57315;SDS011;43156;50.942;18.144;2023-06-10T00:58:02;18.60;;;12.40;;
57315;SDS011;43156;50.942;18.144;2023-06-10T01:00:32;15.00;;;12.40;;
57315;SDS011;43156;50.942;18.144;2023-06-10T01:03:23;16.00;;;13.50;;
57315;SDS011;43156;50.942;18.144;2023-06-10T01:06:05;19.80;;;14.90;;
57315;SDS011;43156;50.942;18.144;2023-06-10T01:12:10;16.30;;;12.30;;
57315;SDS011;43156;50.942;18.144;2023-06-10T01:14:48;17.40;;;12.80;;
57315;SDS011;43156;50.942;18.144;2023-06-10T01:17:21;18.90;;;14.20;;
57315;SDS011;43156;50.942;18.144;2023-06-10T01:19:54;21.40;;;14.70;;
57315;SDS011;43156;50.942;18.144;2023-06-10T01:22:25;16.60;;;13.60;;
57315;SDS011;43156;50.942;18.144;2023-06-10T01:24:58;19.30;;;14.10;;
57315;SDS011;43156;50.942;18.144;2023-06-10T01:27:30;18.90;;;14.00;;
57315;SDS011;43156;50.942;18.144;2023-06-10T01:30:08;18.40;;;15.00;;
57315;SDS011;43156;50.942;18.144;2023-06-10T01:32:52;22.00;;;17.80;;
57315;SDS011;43156;50.942;18.144;2023-06-10T01:35:41;25.20;;;17.90;;
57315;SDS011;43156;50.942;18.144;2023-06-10T01:38:12;18.40;;;16.30;;
57315;SDS011;43156;50.942;18.144;2023-06-10T01:40:45;19.20;;;15.80;;
57315;SDS011;43156;50.942;18.144;2023-06-10T01:43:15;19.40;;;15.40;;
57315;SDS011;43156;50.942;18.144;2023-06-10T01:45:50;19.60;;;15.40;;
57315;SDS011;43156;50.942;18.144;2023-06-10T01:48:29;18.60;;;15.70;;
57315;SDS011;43156;50.942;18.144;2023-06-10T01:51:05;19.60;;;16.00;;
57315;SDS011;43156;50.942;18.144;2023-06-10T01:53:41;19.80;;;15.40;;
57315;SDS011;43156;50.942;18.144;2023-06-10T01:56:08;16.80;;;15.00;;
57315;SDS011;43156;50.942;18.144;2023-06-10T01:58:48;17.70;;;14.80;;
57315;SDS011;43156;50.942;18.144;2023-06-10T02:01:16;19.10;;;15.00;;
57315;SDS011;43156;50.942;18.144;2023-06-10T02:03:50;17.40;;;15.20;;
57315;SDS011;43156;50.942;18.144;2023-06-10T02:06:16;17.70;;;14.90;;
57315;SDS011;43156;50.942;18.144;2023-06-10T02:08:50;20.70;;;16.50;;
57315;SDS011;43156;50.942;18.144;2023-06-10T02:11:16;17.90;;;15.90;;
57315;SDS011;43156;50.942;18.144;2023-06-10T02:13:50;19.20;;;14.70;;
57315;SDS011;43156;50.942;18.144;2023-06-10T02:16:16;18.10;;;15.40;;
57315;SDS011;43156;50.942;18.144;2023-06-10T02:18:54;22.10;;;16.00;;
57315;SDS011;43156;50.942;18.144;2023-06-10T02:21:21;19.00;;;16.60;;
57315;SDS011;43156;50.942;18.144;2023-06-10T02:23:54;22.10;;;16.50;;
57315;SDS011;43156;50.942;18.144;2023-06-10T02:26:23;18.60;;;15.10;;
57315;SDS011;43156;50.942;18.144;2023-06-10T02:28:51;17.60;;;14.70;;
57315;SDS011;43156;50.942;18.144;2023-06-10T02:31:17;20.20;;;14.70;;
57315;SDS011;43156;50.942;18.144;2023-06-10T02:33:51;17.70;;;14.50;;
57315;SDS011;43156;50.942;18.144;2023-06-10T02:36:19;16.60;;;15.00;;
57315;SDS011;43156;50.942;18.144;2023-06-10T02:38:54;18.80;;;15.80;;
57315;SDS011;43156;50.942;18.144;2023-06-10T02:41:20;16.80;;;14.70;;
57315;SDS011;43156;50.942;18.144;2023-06-10T02:43:52;16.80;;;14.10;;
57315;SDS011;43156;50.942;18.144;2023-06-10T02:46:19;15.40;;;13.70;;
57315;SDS011;43156;50.942;18.144;2023-06-10T02:48:54;16.00;;;14.20;;
57315;SDS011;43156;50.942;18.144;2023-06-10T02:51:22;17.60;;;15.40;;
57315;SDS011;43156;50.942;18.144;2023-06-10T02:53:57;17.40;;;14.00;;
57315;SDS011;43156;50.942;18.144;2023-06-10T02:56:24;18.40;;;13.90;;
57315;SDS011;43156;50.942;18.144;2023-06-10T02:58:57;17.00;;;13.40;;
57315;SDS011;43156;50.942;18.144;2023-06-10T03:01:23;17.80;;;13.80;;
57315;SDS011;43156;50.942;18.144;2023-06-10T03:03:52;17.90;;;15.10;;
57315;SDS011;43156;50.942;18.144;2023-06-10T03:06:18;18.90;;;14.20;;
57315;SDS011;43156;50.942;18.144;2023-06-10T03:08:50;15.70;;;13.60;;
57315;SDS011;43156;50.942;18.144;2023-06-10T03:13:53;18.40;;;13.80;;
57315;SDS011;43156;50.942;18.144;2023-06-10T03:16:20;16.50;;;14.60;;
57315;SDS011;43156;50.942;18.144;2023-06-10T03:18:55;17.70;;;14.00;;
57315;SDS011;43156;50.942;18.144;2023-06-10T03:21:25;18.60;;;13.80;;
57315;SDS011;43156;50.942;18.144;2023-06-10T03:23:59;15.00;;;13.40;;
57315;SDS011;43156;50.942;18.144;2023-06-10T03:26:28;16.10;;;14.10;;
57315;SDS011;43156;50.942;18.144;2023-06-10T03:29:10;18.70;;;14.90;;
57315;SDS011;43156;50.942;18.144;2023-06-10T03:31:38;15.60;;;14.00;;
57315;SDS011;43156;50.942;18.144;2023-06-10T03:34:13;18.40;;;13.60;;
57315;SDS011;43156;50.942;18.144;2023-06-10T03:36:44;18.50;;;13.10;;
57315;SDS011;43156;50.942;18.144;2023-06-10T03:41:45;16.00;;;13.70;;
57315;SDS011;43156;50.942;18.144;2023-06-10T03:44:18;21.60;;;15.10;;
57315;SDS011;43156;50.942;18.144;2023-06-10T03:46:59;16.20;;;13.70;;
57315;SDS011;43156;50.942;18.144;2023-06-10T03:52:13;15.90;;;13.90;;
57315;SDS011;43156;50.942;18.144;2023-06-10T03:54:44;18.00;;;15.20;;
57315;SDS011;43156;50.942;18.144;2023-06-10T03:57:20;15.50;;;13.80;;
57315;SDS011;43156;50.942;18.144;2023-06-10T04:00:04;15.60;;;13.50;;
57315;SDS011;43156;50.942;18.144;2023-06-10T04:02:42;16.30;;;14.00;;
57315;SDS011;43156;50.942;18.144;2023-06-10T04:05:23;16.70;;;14.40;;
57315;SDS011;43156;50.942;18.144;2023-06-10T04:07:58;18.80;;;13.40;;
57315;SDS011;43156;50.942;18.144;2023-06-10T04:10:30;15.50;;;13.00;;
57315;SDS011;43156;50.942;18.144;2023-06-10T04:13:01;15.90;;;13.10;;
57315;SDS011;43156;50.942;18.144;2023-06-10T04:15:28;17.00;;;14.10;;
57315;SDS011;43156;50.942;18.144;2023-06-10T04:18:00;16.90;;;13.40;;
57315;SDS011;43156;50.942;18.144;2023-06-10T04:20:33;14.30;;;12.80;;
57315;SDS011;43156;50.942;18.144;2023-06-10T04:23:09;14.20;;;12.70;;
57315;SDS011;43156;50.942;18.144;2023-06-10T04:25:45;15.50;;;13.00;;
57315;SDS011;43156;50.942;18.144;2023-06-10T04:28:16;14.90;;;12.80;;
57315;SDS011;43156;50.942;18.144;2023-06-10T04:30:48;14.30;;;12.10;;
57315;SDS011;43156;50.942;18.144;2023-06-10T04:33:37;15.90;;;12.90;;
57315;SDS011;43156;50.942;18.144;2023-06-10T04:36:22;18.30;;;13.30;;
57315;SDS011;43156;50.942;18.144;2023-06-10T04:38:56;13.80;;;12.10;;
57315;SDS011;43156;50.942;18.144;2023-06-10T04:41:26;14.40;;;11.30;;
57315;SDS011;43156;50.942;18.144;2023-06-10T04:43:58;14.70;;;11.80;;
57315;SDS011;43156;50.942;18.144;2023-06-10T04:46:34;16.80;;;12.30;;
57315;SDS011;43156;50.942;18.144;2023-06-10T04:49:09;13.10;;;11.80;;
57315;SDS011;43156;50.942;18.144;2023-06-10T04:51:41;13.20;;;11.80;;
57315;SDS011;43156;50.942;18.144;2023-06-10T04:54:19;13.50;;;12.10;;
57315;SDS011;43156;50.942;18.144;2023-06-10T04:56:45;13.50;;;12.10;;
57315;SDS011;43156;50.942;18.144;2023-06-10T04:59:21;14.50;;;12.00;;
57315;SDS011;43156;50.942;18.144;2023-06-10T05:01:48;13.20;;;11.50;;
57315;SDS011;43156;50.942;18.144;2023-06-10T05:04:16;13.90;;;12.50;;
57315;SDS011;43156;50.942;18.144;2023-06-10T05:09:16;14.80;;;11.10;;
57315;SDS011;43156;50.942;18.144;2023-06-10T05:11:44;14.50;;;12.00;;
57315;SDS011;43156;50.942;18.144;2023-06-10T05:14:25;13.60;;;12.20;;
57315;SDS011;43156;50.942;18.144;2023-06-10T05:16:57;12.70;;;11.30;;
57315;SDS011;43156;50.942;18.144;2023-06-10T05:19:25;11.80;;;10.70;;
57315;SDS011;43156;50.942;18.144;2023-06-10T05:21:52;13.70;;;11.60;;
57315;SDS011;43156;50.942;18.144;2023-06-10T05:24:26;12.40;;;11.20;;
57315;SDS011;43156;50.942;18.144;2023-06-10T05:26:52;12.20;;;10.80;;
57315;SDS011;43156;50.942;18.144;2023-06-10T05:29:26;12.10;;;11.00;;
57315;SDS011;43156;50.942;18.144;2023-06-10T05:31:53;13.50;;;11.60;;
57315;SDS011;43156;50.942;18.144;2023-06-10T05:34:29;13.60;;;11.70;;
57315;SDS011;43156;50.942;18.144;2023-06-10T05:36:56;14.20;;;10.50;;
57315;SDS011;43156;50.942;18.144;2023-06-10T05:39:26;11.90;;;10.60;;
57315;SDS011;43156;50.942;18.144;2023-06-10T05:44:42;13.40;;;10.30;;
57315;SDS011;43156;50.942;18.144;2023-06-10T05:47:14;10.90;;;9.80;;
57315;SDS011;43156;50.942;18.144;2023-06-10T05:49:53;11.00;;;9.90;;
57315;SDS011;43156;50.942;18.144;2023-06-10T05:52:27;11.80;;;10.40;;
57315;SDS011;43156;50.942;18.144;2023-06-10T05:54:58;11.90;;;10.30;;
57315;SDS011;43156;50.942;18.144;2023-06-10T06:41:39;9.70;;;7.40;;
57315;SDS011;43156;50.942;18.144;2023-06-10T06:44:05;8.90;;;7.20;;
57315;SDS011;43156;50.942;18.144;2023-06-10T06:46:36;9.10;;;7.50;;
57315;SDS011;43156;50.942;18.144;2023-06-10T06:49:02;8.80;;;8.00;;
57315;SDS011;43156;50.942;18.144;2023-06-10T06:51:38;9.00;;;7.90;;
57315;SDS011;43156;50.942;18.144;2023-06-10T06:54:13;9.50;;;7.60;;
57315;SDS011;43156;50.942;18.144;2023-06-10T06:56:40;9.30;;;8.40;;
57315;SDS011;43156;50.942;18.144;2023-06-10T06:59:10;9.50;;;8.10;;
57315;SDS011;43156;50.942;18.144;2023-06-10T07:01:46;11.70;;;7.80;;
57315;SDS011;43156;50.942;18.144;2023-06-10T07:04:18;9.50;;;7.70;;
57315;SDS011;43156;50.942;18.144;2023-06-10T07:06:49;8.60;;;7.80;;
57315;SDS011;43156;50.942;18.144;2023-06-10T07:09:18;7.90;;;7.10;;
57315;SDS011;43156;50.942;18.144;2023-06-10T07:11:44;11.60;;;9.80;;
57315;SDS011;43156;50.942;18.144;2023-06-10T07:14:13;11.90;;;8.50;;
57315;SDS011;43156;50.942;18.144;2023-06-10T07:16:50;7.80;;;7.00;;
57315;SDS011;43156;50.942;18.144;2023-06-10T07:19:22;7.90;;;6.90;;
57315;SDS011;43156;50.942;18.144;2023-06-10T07:21:51;9.10;;;6.90;;
57315;SDS011;43156;50.942;18.144;2023-06-10T07:24:20;9.30;;;8.10;;
57315;SDS011;43156;50.942;18.144;2023-06-10T07:26:54;8.60;;;7.00;;
57315;SDS011;43156;50.942;18.144;2023-06-10T07:29:24;7.90;;;7.00;;
57315;SDS011;43156;50.942;18.144;2023-06-10T07:31:50;8.20;;;7.30;;
57315;SDS011;43156;50.942;18.144;2023-06-10T07:34:21;9.60;;;7.70;;
57315;SDS011;43156;50.942;18.144;2023-06-10T07:36:51;9.50;;;8.50;;
57315;SDS011;43156;50.942;18.144;2023-06-10T07:39:17;8.50;;;7.50;;
57315;SDS011;43156;50.942;18.144;2023-06-10T07:41:50;9.70;;;8.10;;
57315;SDS011;43156;50.942;18.144;2023-06-10T07:44:24;8.40;;;7.30;;
57315;SDS011;43156;50.942;18.144;2023-06-10T07:46:56;8.60;;;7.00;;
57315;SDS011;43156;50.942;18.144;2023-06-10T07:49:33;10.20;;;7.50;;
57315;SDS011;43156;50.942;18.144;2023-06-10T07:52:00;8.00;;;7.20;;
57315;SDS011;43156;50.942;18.144;2023-06-10T07:54:27;7.80;;;7.00;;
57315;SDS011;43156;50.942;18.144;2023-06-10T07:57:00;7.90;;;7.10;;
57315;SDS011;43156;50.942;18.144;2023-06-10T07:59:30;8.20;;;7.00;;
57315;SDS011;43156;50.942;18.144;2023-06-10T08:01:59;6.70;;;6.10;;
57315;SDS011;43156;50.942;18.144;2023-06-10T08:04:29;6.80;;;6.20;;
57315;SDS011;43156;50.942;18.144;2023-06-10T08:07:00;6.70;;;6.00;;
57315;SDS011;43156;50.942;18.144;2023-06-10T08:09:26;7.00;;;6.00;;
57315;SDS011;43156;50.942;18.144;2023-06-10T08:11:57;6.70;;;6.00;;
57315;SDS011;43156;50.942;18.144;2023-06-10T08:14:28;7.20;;;6.60;;
57315;SDS011;43156;50.942;18.144;2023-06-10T08:16:55;35.60;;;19.20;;
57315;SDS011;43156;50.942;18.144;2023-06-10T08:19:26;12.20;;;8.90;;
57315;SDS011;43156;50.942;18.144;2023-06-10T08:21:56;7.90;;;7.10;;
57315;SDS011;43156;50.942;18.144;2023-06-10T08:24:32;7.10;;;6.40;;
57315;SDS011;43156;50.942;18.144;2023-06-10T08:27:00;7.00;;;6.20;;
57315;SDS011;43156;50.942;18.144;2023-06-10T08:29:27;7.50;;;6.80;;
57315;SDS011;43156;50.942;18.144;2023-06-10T08:32:01;5.80;;;5.10;;
57315;SDS011;43156;50.942;18.144;2023-06-10T08:34:33;5.50;;;5.00;;
57315;SDS011;43156;50.942;18.144;2023-06-10T08:37:00;11.60;;;5.70;;
57315;SDS011;43156;50.942;18.144;2023-06-10T08:39:32;7.10;;;5.50;;
57315;SDS011;43156;50.942;18.144;2023-06-10T08:44:47;6.40;;;4.60;;
57315;SDS011;43156;50.942;18.144;2023-06-10T08:47:23;7.40;;;4.80;;
57315;SDS011;43156;50.942;18.144;2023-06-10T08:49:51;5.10;;;4.60;;
57315;SDS011;43156;50.942;18.144;2023-06-10T08:52:25;6.40;;;5.00;;
57315;SDS011;43156;50.942;18.144;2023-06-10T08:55:14;6.00;;;4.90;;
57315;SDS011;43156;50.942;18.144;2023-06-10T08:57:47;5.60;;;4.70;;
57315;SDS011;43156;50.942;18.144;2023-06-10T09:00:17;6.10;;;5.30;;
57315;SDS011;43156;50.942;18.144;2023-06-10T09:02:47;7.20;;;4.70;;
57315;SDS011;43156;50.942;18.144;2023-06-10T09:05:17;6.30;;;4.90;;
57315;SDS011;43156;50.942;18.144;2023-06-10T09:10:20;9.00;;;6.60;;
57315;SDS011;43156;50.942;18.144;2023-06-10T09:12:49;5.70;;;5.00;;
57315;SDS011;43156;50.942;18.144;2023-06-10T09:15:18;7.60;;;5.80;;
57315;SDS011;43156;50.942;18.144;2023-06-10T09:17:48;7.00;;;5.40;;
57315;SDS011;43156;50.942;18.144;2023-06-10T09:20:19;6.60;;;4.60;;
57315;SDS011;43156;50.942;18.144;2023-06-10T09:22:49;5.50;;;4.80;;
57315;SDS011;43156;50.942;18.144;2023-06-10T09:25:19;6.50;;;5.40;;
57315;SDS011;43156;50.942;18.144;2023-06-10T09:28:04;7.10;;;5.00;;
57315;SDS011;43156;50.942;18.144;2023-06-10T09:30:43;5.90;;;5.00;;
57315;SDS011;43156;50.942;18.144;2023-06-10T09:33:12;4.90;;;4.30;;
57315;SDS011;43156;50.942;18.144;2023-06-10T09:35:46;7.20;;;4.50;;
57315;SDS011;43156;50.942;18.144;2023-06-10T09:38:19;5.10;;;4.50;;
57315;SDS011;43156;50.942;18.144;2023-06-10T09:40:53;5.50;;;5.00;;
57315;SDS011;43156;50.942;18.144;2023-06-10T09:43:23;6.90;;;5.00;;
57315;SDS011;43156;50.942;18.144;2023-06-10T09:46:19;5.60;;;4.70;;
57315;SDS011;43156;50.942;18.144;2023-06-10T09:48:49;5.10;;;4.70;;
57315;SDS011;43156;50.942;18.144;2023-06-10T09:51:20;6.10;;;5.40;;
57315;SDS011;43156;50.942;18.144;2023-06-10T09:53:51;6.60;;;5.90;;
57315;SDS011;43156;50.942;18.144;2023-06-10T09:56:18;7.30;;;5.70;;
57315;SDS011;43156;50.942;18.144;2023-06-10T09:58:49;12.80;;;6.80;;
57315;SDS011;43156;50.942;18.144;2023-06-10T10:01:24;7.50;;;6.30;;
57315;SDS011;43156;50.942;18.144;2023-06-10T10:03:54;8.40;;;7.30;;
57315;SDS011;43156;50.942;18.144;2023-06-10T10:06:24;7.30;;;5.60;;
57315;SDS011;43156;50.942;18.144;2023-06-10T10:08:55;9.70;;;6.10;;
57315;SDS011;43156;50.942;18.144;2023-06-10T10:11:22;6.70;;;6.10;;
57315;SDS011;43156;50.942;18.144;2023-06-10T10:13:54;7.00;;;6.40;;
57315;SDS011;43156;50.942;18.144;2023-06-10T10:16:33;9.00;;;6.90;;
57315;SDS011;43156;50.942;18.144;2023-06-10T10:19:10;8.70;;;6.80;;
57315;SDS011;43156;50.942;18.144;2023-06-10T10:21:47;9.50;;;7.00;;
57315;SDS011;43156;50.942;18.144;2023-06-10T10:24:31;8.00;;;6.90;;
57315;SDS011;43156;50.942;18.144;2023-06-10T10:29:57;8.30;;;7.00;;
57315;SDS011;43156;50.942;18.144;2023-06-10T10:35:25;8.10;;;6.70;;
57315;SDS011;43156;50.942;18.144;2023-06-10T10:37:56;6.90;;;6.30;;
57315;SDS011;43156;50.942;18.144;2023-06-10T10:40:28;9.20;;;7.50;;
57315;SDS011;43156;50.942;18.144;2023-06-10T10:42:58;7.30;;;6.60;;
57315;SDS011;43156;50.942;18.144;2023-06-10T10:45:30;8.40;;;7.10;;
57315;SDS011;43156;50.942;18.144;2023-06-10T10:48:05;7.00;;;6.30;;
57315;SDS011;43156;50.942;18.144;2023-06-10T10:50:38;7.60;;;7.00;;
57315;SDS011;43156;50.942;18.144;2023-06-10T10:53:05;8.00;;;7.20;;
57315;SDS011;43156;50.942;18.144;2023-06-10T10:55:33;8.10;;;6.70;;
57315;SDS011;43156;50.942;18.144;2023-06-10T10:58:04;7.60;;;6.90;;
57315;SDS011;43156;50.942;18.144;2023-06-10T11:00:32;8.10;;;6.90;;
57315;SDS011;43156;50.942;18.144;2023-06-10T11:02:59;7.80;;;7.00;;
57315;SDS011;43156;50.942;18.144;2023-06-10T11:08:14;7.80;;;7.10;;
57315;SDS011;43156;50.942;18.144;2023-06-10T11:11:26;7.30;;;6.70;;
57315;SDS011;43156;50.942;18.144;2023-06-10T11:16:49;8.50;;;7.70;;
57315;SDS011;43156;50.942;18.144;2023-06-10T11:19:32;10.50;;;7.70;;
57315;SDS011;43156;50.942;18.144;2023-06-10T11:22:22;10.80;;;7.20;;
57315;SDS011;43156;50.942;18.144;2023-06-10T11:24:55;7.30;;;6.30;;
57315;SDS011;43156;50.942;18.144;2023-06-10T12:17:43;5.00;;;4.60;;
57315;SDS011;43156;50.942;18.144;2023-06-10T12:27:53;3.80;;;3.60;;
57315;SDS011;43156;50.942;18.144;2023-06-10T12:37:55;4.70;;;4.40;;
57315;SDS011;43156;50.942;18.144;2023-06-10T12:48:18;3.70;;;2.50;;
57315;SDS011;43156;50.942;18.144;2023-06-10T12:58:19;3.00;;;2.70;;
57315;SDS011;43156;50.942;18.144;2023-06-10T13:08:26;3.30;;;3.00;;
57315;SDS011;43156;50.942;18.144;2023-06-10T13:18:28;3.20;;;2.50;;
57315;SDS011;43156;50.942;18.144;2023-06-10T13:28:30;8.00;;;2.60;;
57315;SDS011;43156;50.942;18.144;2023-06-10T13:38:42;4.80;;;2.50;;
57315;SDS011;43156;50.942;18.144;2023-06-10T13:48:45;2.60;;;2.40;;
57315;SDS011;43156;50.942;18.144;2023-06-10T13:58:52;1.30;;;1.30;;
57315;SDS011;43156;50.942;18.144;2023-06-10T14:08:44;2.20;;;2.10;;
57315;SDS011;43156;50.942;18.144;2023-06-10T14:18:48;1.80;;;1.60;;
57315;SDS011;43156;50.942;18.144;2023-06-10T14:28:50;2.20;;;2.10;;
57315;SDS011;43156;50.942;18.144;2023-06-10T14:39:05;2.50;;;0.80;;
57315;SDS011;43156;50.942;18.144;2023-06-10T14:49:08;3.90;;;3.60;;
57315;SDS011;43156;50.942;18.144;2023-06-10T14:59:12;12.20;;;3.20;;
57315;SDS011;43156;50.942;18.144;2023-06-10T15:09:12;5.60;;;3.90;;
57315;SDS011;43156;50.942;18.144;2023-06-10T15:19:14;20.50;;;11.80;;
57315;SDS011;43156;50.942;18.144;2023-06-10T15:29:11;9.30;;;1.90;;
57315;SDS011;43156;50.942;18.144;2023-06-10T15:39:26;16.20;;;7.70;;
57315;SDS011;43156;50.942;18.144;2023-06-10T15:49:28;19.00;;;3.30;;
57315;SDS011;43156;50.942;18.144;2023-06-10T15:59:30;2.90;;;2.60;;
57315;SDS011;43156;50.942;18.144;2023-06-10T16:17:08;2.90;;;2.70;;
57315;SDS011;43156;50.942;18.144;2023-06-10T16:27:10;9.50;;;1.90;;
57315;SDS011;43156;50.942;18.144;2023-06-10T16:37:17;11.70;;;2.40;;
57315;SDS011;43156;50.942;18.144;2023-06-10T16:47:30;6.80;;;4.60;;
57315;SDS011;43156;50.942;18.144;2023-06-10T16:57:27;18.00;;;3.90;;
57315;SDS011;43156;50.942;18.144;2023-06-10T17:07:26;2.20;;;2.00;;
57315;SDS011;43156;50.942;18.144;2023-06-10T17:17:31;3.10;;;2.90;;
57315;SDS011;43156;50.942;18.144;2023-06-10T18:15:59;4.60;;;3.20;;
57315;SDS011;43156;50.942;18.144;2023-06-10T18:25:44;3.10;;;2.90;;
57315;SDS011;43156;50.942;18.144;2023-06-10T18:35:44;4.20;;;3.30;;
57315;SDS011;43156;50.942;18.144;2023-06-10T18:45:44;5.40;;;4.30;;
57315;SDS011;43156;50.942;18.144;2023-06-10T18:55:43;3.50;;;3.20;;
57315;SDS011;43156;50.942;18.144;2023-06-10T19:05:35;8.30;;;5.10;;
57315;SDS011;43156;50.942;18.144;2023-06-10T19:15:35;12.20;;;5.70;;
57315;SDS011;43156;50.942;18.144;2023-06-10T19:25:34;6.50;;;5.30;;
57315;SDS011;43156;50.942;18.144;2023-06-10T19:35:29;6.80;;;6.10;;
57315;SDS011;43156;50.942;18.144;2023-06-10T19:45:20;6.40;;;5.70;;
57315;SDS011;43156;50.942;18.144;2023-06-10T19:55:15;9.20;;;5.10;;
57315;SDS011;43156;50.942;18.144;2023-06-10T20:05:03;7.00;;;5.20;;
57315;SDS011;43156;50.942;18.144;2023-06-10T20:14:56;11.90;;;6.50;;
57315;SDS011;43156;50.942;18.144;2023-06-10T20:24:50;64.60;;;28.70;;
57315;SDS011;43156;50.942;18.144;2023-06-10T20:34:39;26.60;;;14.40;;
57315;SDS011;43156;50.942;18.144;2023-06-10T20:44:29;8.10;;;7.40;;
57315;SDS011;43156;50.942;18.144;2023-06-10T20:54:21;12.80;;;7.30;;
57315;SDS011;43156;50.942;18.144;2023-06-10T21:04:27;8.90;;;8.10;;
57315;SDS011;43156;50.942;18.144;2023-06-10T21:21:42;10.40;;;9.30;;
57315;SDS011;43156;50.942;18.144;2023-06-10T21:31:39;11.00;;;8.40;;
57315;SDS011;43156;50.942;18.144;2023-06-10T21:51:34;20.70;;;9.80;;
57315;SDS011;43156;50.942;18.144;2023-06-10T21:59:05;11.40;;;10.40;;
57315;SDS011;43156;50.942;18.144;2023-06-10T22:08:59;25.20;;;9.10;;
57315;SDS011;43156;50.942;18.144;2023-06-10T22:18:52;11.30;;;10.30;;
57315;SDS011;43156;50.942;18.144;2023-06-10T22:28:47;8.70;;;8.00;;
57315;SDS011;43156;50.942;18.144;2023-06-10T22:38:46;9.30;;;8.50;;
57315;SDS011;43156;50.942;18.144;2023-06-10T22:48:45;12.00;;;7.80;;
57315;SDS011;43156;50.942;18.144;2023-06-10T22:58:41;8.90;;;8.20;;
57315;SDS011;43156;50.942;18.144;2023-06-10T23:08:30;8.40;;;7.60;;
57315;SDS011;43156;50.942;18.144;2023-06-10T23:18:30;4.20;;;3.20;;
